Time;durP1;ratioP1;P1;durP2;ratioP2;P2;SDS_P1;SDS_P2;PMS_P1;PMS_P2;Temp;Humidity;BMP_temperature;BMP_pressure;BME280_temperature;BME280_humidity;BME280_pressure;Samples;Min_cycle;Max_cycle;Signal;HPM_P1;HPM_P2
2022/03/12 07:25:11;;;;;;;7.07;3.78;;;7.60;33.40;;;;;;5049411;27;20941;-68
2022/03/12 07:27:37;;;;;;;9.00;4.78;;;7.80;33.40;;;;;;5050365;28;20075;-68
2022/03/12 07:30:04;;;;;;;8.83;4.57;;;8.00;33.20;;;;;;5052724;28;20470;-69
2022/03/12 07:32:30;;;;;;;7.47;4.32;;;8.60;32.50;;;;;;5048716;28;20032;-68
2022/03/12 07:34:56;;;;;;;9.73;4.47;;;9.00;31.90;;;;;;5051513;28;20033;-68
2022/03/12 07:37:22;;;;;;;6.63;4.22;;;8.60;31.60;;;;;;5046469;28;20033;-68
2022/03/12 07:39:47;;;;;;;6.63;4.27;;;7.40;32.70;;;;;;5050449;28;20025;-65
2022/03/12 07:42:14;;;;;;;8.80;4.57;;;7.70;34.00;;;;;;5048929;28;20098;-65
2022/03/12 07:44:40;;;;;;;6.82;4.28;;;8.10;33.90;;;;;;5050815;28;20025;-69
2022/03/12 07:47:06;;;;;;;7.28;4.57;;;7.20;33.10;;;;;;5048586;28;20029;-68
2022/03/12 07:49:32;;;;;;;9.93;4.80;;;7.90;33.20;;;;;;5049110;28;20020;-68
2022/03/12 07:51:58;;;;;;;5.90;4.17;;;7.70;33.20;;;;;;5051183;28;20032;-68
2022/03/12 07:54:24;;;;;;;10.73;4.33;;;6.80;33.40;;;;;;5048044;28;20032;-69
2022/03/12 07:56:49;;;;;;;7.13;4.40;;;6.90;33.60;;;;;;5050745;28;20028;-68
2022/03/12 07:59:16;;;;;;;7.83;4.30;;;6.50;34.00;;;;;;5048669;28;20059;-69
2022/03/12 08:01:42;;;;;;;9.75;5.35;;;6.10;34.10;;;;;;5048129;28;20327;-69
2022/03/12 08:04:08;;;;;;;6.63;4.00;;;6.10;34.40;;;;;;5052467;28;20051;-69
2022/03/12 08:06:34;;;;;;;7.80;4.53;;;7.90;34.20;;;;;;5046015;28;20644;-69
2022/03/12 08:09:00;;;;;;;7.82;4.63;;;8.00;32.20;;;;;;5040578;28;20108;-69
2022/03/12 08:11:29;;;;;;;7.13;4.18;;;7.70;33.20;;;;;;5022085;28;20029;-69
2022/03/12 08:14:02;;;;;;;8.75;4.13;;;8.30;32.30;;;;;;5054923;28;21609;-67
2022/03/12 08:16:34;;;;;;;6.93;4.38;;;7.60;32.60;;;;;;5021976;28;20827;-68
2022/03/12 08:19:05;;;;;;;6.90;4.40;;;6.90;34.00;;;;;;5030426;28;20133;-67
2022/03/12 08:21:31;;;;;;;9.25;5.00;;;7.20;33.70;;;;;;5025192;28;20483;-68
2022/03/12 08:23:58;;;;;;;7.50;4.88;;;7.80;33.30;;;;;;5025779;28;20033;-68
2022/03/12 08:26:24;;;;;;;8.73;4.45;;;7.50;33.20;;;;;;5024062;28;20024;-69
2022/03/12 08:28:50;;;;;;;8.13;4.20;;;8.40;32.80;;;;;;5022991;28;20676;-69
2022/03/12 08:31:16;;;;;;;6.63;4.03;;;8.20;32.60;;;;;;5020076;28;20022;-69
2022/03/12 08:33:43;;;;;;;8.60;4.50;;;8.30;33.10;;;;;;5018941;28;20037;-69
2022/03/12 08:36:09;;;;;;;6.97;4.28;;;8.70;33.60;;;;;;5018254;28;20033;-69
2022/03/12 08:38:35;;;;;;;7.67;4.30;;;9.10;31.80;;;;;;5007235;28;20028;-69
2022/03/12 08:41:05;;;;;;;8.43;4.40;;;8.50;32.20;;;;;;5003343;28;21127;-69
2022/03/12 08:43:32;;;;;;;8.55;4.55;;;7.50;32.90;;;;;;5008928;28;20036;-69
2022/03/12 08:45:58;;;;;;;10.43;4.65;;;6.70;34.10;;;;;;5010896;28;20029;-70
2022/03/12 08:48:24;;;;;;;8.30;3.97;;;7.90;33.80;;;;;;5004740;28;20022;-70
2022/03/12 08:50:50;;;;;;;6.60;4.33;;;9.20;32.70;;;;;;5005640;28;20036;-69
2022/03/12 08:53:16;;;;;;;6.63;4.05;;;8.20;31.90;;;;;;5011104;28;20129;-69
2022/03/12 08:55:42;;;;;;;10.00;5.03;;;7.50;33.40;;;;;;5010106;28;20390;-69
2022/03/12 08:58:08;;;;;;;7.80;4.13;;;7.80;33.30;;;;;;5009360;28;20100;-69
2022/03/12 09:00:34;;;;;;;8.37;3.93;;;8.10;33.30;;;;;;5015026;28;20017;-70
2022/03/12 09:03:00;;;;;;;7.18;3.90;;;7.80;33.50;;;;;;5010178;28;20375;-68
2022/03/12 09:05:26;;;;;;;6.45;4.75;;;8.30;33.00;;;;;;5010618;28;20034;-69
2022/03/12 09:07:52;;;;;;;9.37;4.40;;;8.00;34.00;;;;;;5009911;28;20022;-69
2022/03/12 09:10:19;;;;;;;7.18;4.60;;;7.80;33.50;;;;;;5009216;28;20010;-68
2022/03/12 09:12:45;;;;;;;12.35;4.93;;;7.20;34.20;;;;;;5010272;28;20631;-69
2022/03/12 09:15:13;;;;;;;9.73;5.43;;;7.50;34.80;;;;;;5004763;28;20033;-69
2022/03/12 09:17:39;;;;;;;6.40;4.32;;;7.80;34.80;;;;;;5013898;28;21153;-68
2022/03/12 09:20:07;;;;;;;9.15;5.43;;;8.10;33.60;;;;;;5002834;28;20038;-69
2022/03/12 09:22:33;;;;;;;8.38;4.45;;;8.40;32.90;;;;;;5004924;28;20026;-69
2022/03/12 09:25:00;;;;;;;9.27;4.82;;;8.50;32.90;;;;;;5005692;28;20030;-69
2022/03/12 09:27:26;;;;;;;8.55;4.40;;;8.50;32.40;;;;;;5016409;28;20026;-69
2022/03/12 09:29:52;;;;;;;7.80;4.40;;;8.80;32.00;;;;;;5004453;28;20060;-69
2022/03/12 09:32:18;;;;;;;7.13;4.90;;;8.90;32.10;;;;;;5010397;28;20025;-69
2022/03/12 09:34:44;;;;;;;7.47;4.77;;;8.00;32.90;;;;;;5012033;28;20056;-68
2022/03/12 09:37:10;;;;;;;;;;;7.10;33.70;;;;;;5006696;28;20283;-69
2022/03/12 09:39:37;;;;;;;6.72;4.13;;;7.20;34.50;;;;;;5008720;28;19932;-69
2022/03/12 09:42:02;;;;;;;;;;;8.30;33.40;;;;;;5004631;28;20542;-69
2022/03/12 09:44:30;;;;;;;7.25;4.15;;;8.90;31.80;;;;;;5016760;28;19992;-69
2022/03/12 09:46:56;;;;;;;8.98;4.30;;;8.00;32.30;;;;;;5005861;28;20030;-70
2022/03/12 09:49:22;;;;;;;7.57;4.40;;;7.70;33.40;;;;;;5010942;28;20083;-69
2022/03/12 09:51:49;;;;;;;8.07;4.18;;;8.50;32.40;;;;;;5008385;28;20045;-69
2022/03/12 09:54:16;;;;;;;;;;;8.00;32.60;;;;;;5012890;28;20026;-69
2022/03/12 09:56:42;;;;;;;6.40;4.15;;;8.60;33.30;;;;;;5006300;28;20582;-69
2022/03/12 09:59:08;;;;;;;6.40;4.25;;;8.80;31.60;;;;;;5017702;28;20044;-69
2022/03/12 10:01:34;;;;;;;7.20;4.60;;;9.10;30.90;;;;;;5002981;28;20029;-69
2022/03/12 10:04:00;;;;;;;5.77;3.87;;;8.30;31.70;;;;;;5016782;28;20036;-69
2022/03/12 10:06:31;;;;;;;9.90;4.60;;;8.80;31.70;;;;;;5010733;28;20029;-69
2022/03/12 10:08:56;;;;;;;7.22;4.20;;;9.30;31.20;;;;;;5008079;28;20120;-69
2022/03/12 10:11:23;;;;;;;6.50;4.90;;;8.90;31.90;;;;;;5010837;28;21064;-69
2022/03/12 10:13:49;;;;;;;5.57;3.55;;;8.80;31.80;;;;;;5009357;28;20109;-69
2022/03/12 10:16:18;;;;;;;7.60;4.47;;;9.00;31.80;;;;;;5039744;28;20478;-69
2022/03/12 10:18:45;;;;;;;8.93;4.57;;;9.50;31.80;;;;;;5029596;28;20429;-68
2022/03/12 10:21:12;;;;;;;9.00;4.20;;;8.80;31.50;;;;;;5012422;28;20481;-69
2022/03/12 10:23:38;;;;;;;7.82;4.13;;;9.00;32.10;;;;;;5004157;28;20041;-69
2022/03/12 10:26:03;;;;;;;10.07;4.70;;;9.00;31.10;;;;;;5011625;28;20028;-69
2022/03/12 10:28:34;;;;;;;8.53;4.83;;;9.00;31.80;;;;;;5002972;28;20022;-69
2022/03/12 10:31:04;;;;;;;5.00;3.72;;;9.30;31.00;;;;;;5007269;28;20100;-69
2022/03/12 10:33:30;;;;;;;9.13;3.85;;;8.90;30.50;;;;;;5005422;28;20466;-69
2022/03/12 10:36:11;;;;;;;8.38;5.28;;;9.50;30.40;;;;;;5008009;28;20033;-69
2022/03/12 10:38:48;;;;;;;6.80;4.25;;;9.10;31.00;;;;;;5007859;28;20050;-68
2022/03/12 10:41:15;;;;;;;10.33;3.90;;;8.60;31.30;;;;;;5005551;28;20133;-69
2022/03/12 10:43:45;;;;;;;;;;;9.80;31.50;;;;;;5010754;28;20022;-69
2022/03/12 10:46:19;;;;;;;7.75;4.20;;;9.20;30.40;;;;;;5005739;28;19944;-69
2022/03/12 10:48:48;;;;;;;7.57;3.78;;;9.80;30.40;;;;;;5010720;28;20337;-69
2022/03/12 10:51:17;;;;;;;7.03;4.25;;;9.60;30.60;;;;;;5003676;28;20912;-68
2022/03/12 10:53:45;;;;;;;7.03;4.25;;;9.00;30.50;;;;;;5005229;28;20013;-69
2022/03/12 10:56:11;;;;;;;5.85;3.60;;;9.10;30.50;;;;;;5005720;28;20025;-69
2022/03/12 10:58:37;;;;;;;6.85;4.30;;;9.10;30.60;;;;;;5012253;28;20018;-69
2022/03/12 11:01:03;;;;;;;8.57;4.10;;;9.70;30.60;;;;;;5002877;28;20045;-69
2022/03/12 11:03:30;;;;;;;;;;;9.80;30.60;;;;;;5010603;28;20788;-69
2022/03/12 11:05:57;;;;;;;7.38;4.05;;;9.30;30.40;;;;;;5007905;28;19905;-70
2022/03/12 11:08:24;;;;;;;;;;;9.00;30.80;;;;;;5010992;28;20404;-69
2022/03/12 11:11:00;;;;;;;6.85;4.68;;;8.50;31.70;;;;;;5008675;28;20000;-69
2022/03/12 11:13:40;;;;;;;6.40;4.10;;;8.30;31.80;;;;;;5007988;28;20917;-68
2022/03/12 11:16:12;;;;;;;5.63;3.30;;;7.90;32.20;;;;;;4999183;28;20060;-68
2022/03/12 11:18:47;;;;;;;8.20;3.88;;;7.50;32.70;;;;;;5007431;28;20022;-70
2022/03/12 11:21:24;;;;;;;10.98;3.88;;;7.00;32.70;;;;;;5004484;28;20018;-70
2022/03/12 11:23:50;;;;;;;9.15;3.88;;;7.50;33.00;;;;;;5007227;28;20345;-70
2022/03/12 11:26:16;;;;;;;9.60;4.65;;;7.30;32.80;;;;;;4999625;28;20025;-69
2022/03/12 11:28:56;;;;;;;7.27;4.40;;;7.20;33.10;;;;;;5009878;28;20018;-70
2022/03/12 11:31:48;;;;;;;5.38;3.13;;;7.20;33.30;;;;;;5007299;28;20494;-70
2022/03/12 11:34:19;;;;;;;5.75;3.92;;;7.20;33.00;;;;;;5006499;28;20045;-69
2022/03/12 11:36:48;;;;;;;6.50;3.67;;;7.20;33.40;;;;;;5008679;28;20033;-70
2022/03/12 11:39:27;;;;;;;7.47;3.53;;;6.90;33.60;;;;;;5005900;28;20467;-70
2022/03/12 11:42:02;;;;;;;7.90;3.50;;;7.00;33.20;;;;;;5009884;28;21021;-70
2022/03/12 11:44:30;;;;;;;6.85;4.10;;;7.30;33.20;;;;;;5009885;28;20030;-70
2022/03/12 11:46:56;;;;;;;7.03;4.03;;;7.00;33.20;;;;;;4998449;28;20026;-70
2022/03/12 11:49:23;;;;;;;5.95;3.95;;;7.30;33.70;;;;;;5007658;28;20083;-70
2022/03/12 11:51:51;;;;;;;8.20;4.03;;;7.40;33.00;;;;;;5006912;28;20382;-70
2022/03/12 11:54:18;;;;;;;4.70;3.30;;;7.10;32.70;;;;;;5011381;28;20029;-70
2022/03/12 11:56:44;;;;;;;6.88;3.88;;;7.10;32.60;;;;;;5005587;28;20455;-70
2022/03/12 11:59:10;;;;;;;7.07;3.90;;;6.60;32.40;;;;;;5003496;28;20038;-69
2022/03/12 12:01:37;;;;;;;5.65;3.80;;;6.80;33.10;;;;;;5004683;28;20080;-70
2022/03/12 12:04:04;;;;;;;5.00;3.88;;;7.00;33.20;;;;;;5008498;28;20034;-70
2022/03/12 12:06:30;;;;;;;;;;;7.00;33.60;;;;;;4999055;28;20379;-70
2022/03/12 12:08:57;;;;;;;7.35;3.75;;;7.20;32.50;;;;;;5011061;28;19920;-70
2022/03/12 12:11:22;;;;;;;;;;;7.00;32.90;;;;;;5008316;28;20026;-70
2022/03/12 12:13:49;;;;;;;7.47;3.45;;;7.10;33.20;;;;;;5005295;28;20730;-69
2022/03/12 12:16:18;;;;;;;;;;;6.60;32.40;;;;;;5010212;28;20032;-69
2022/03/12 12:18:45;;;;;;;7.82;3.63;;;6.60;32.90;;;;;;5011052;28;19980;-70
2022/03/12 12:21:18;;;;;;;7.47;3.55;;;6.40;33.10;;;;;;5011002;28;20021;-69
2022/03/12 12:23:46;;;;;;;7.50;3.78;;;6.60;32.80;;;;;;5008737;28;20049;-70
2022/03/12 12:26:13;;;;;;;6.75;3.90;;;6.90;32.80;;;;;;5013857;28;20367;-69
2022/03/12 12:28:53;;;;;;;7.35;3.78;;;7.20;32.60;;;;;;5008536;28;20467;-70
2022/03/12 12:31:26;;;;;;;5.93;3.47;;;7.10;32.20;;;;;;5009245;28;20032;-70
2022/03/12 12:33:55;;;;;;;7.57;5.22;;;7.10;32.00;;;;;;5010888;28;21226;-70
2022/03/12 12:36:21;;;;;;;11.65;4.22;;;7.30;32.90;;;;;;5014755;28;20530;-70
2022/03/12 12:39:10;;;;;;;6.35;3.47;;;7.50;31.80;;;;;;5007364;28;20439;-69
2022/03/12 12:41:52;;;;;;;6.57;3.60;;;7.20;32.30;;;;;;4999264;28;20054;-69
2022/03/12 12:44:33;;;;;;;5.35;3.50;;;7.10;32.10;;;;;;5017207;28;20033;-69
2022/03/12 12:47:00;;;;;;;5.47;3.65;;;7.10;32.20;;;;;;5012663;28;20103;-70
2022/03/12 12:49:36;;;;;;;7.93;3.67;;;7.20;32.50;;;;;;5015447;28;20057;-69
2022/03/12 12:52:03;;;;;;;7.50;4.10;;;7.20;32.00;;;;;;5015320;28;20390;-69
2022/03/12 12:54:57;;;;;;;5.72;3.95;;;7.20;32.20;;;;;;5010065;28;20055;-69
2022/03/12 12:57:47;;;;;;;7.47;3.70;;;7.00;32.10;;;;;;5013893;28;20094;-69
2022/03/12 13:00:30;;;;;;;4.65;3.28;;;7.10;32.40;;;;;;5009393;28;20053;-69
2022/03/12 13:02:59;;;;;;;5.53;3.47;;;7.40;32.10;;;;;;5006769;28;20029;-69
2022/03/12 13:05:44;;;;;;;5.85;3.72;;;7.20;31.50;;;;;;5010308;28;20033;-69
2022/03/12 13:08:11;;;;;;;6.53;3.63;;;6.70;31.40;;;;;;5008713;28;20022;-70
2022/03/12 13:10:36;;;;;;;;;;;6.80;31.60;;;;;;5005922;28;20018;-70
2022/03/12 13:13:23;;;;;;;6.03;3.45;;;7.20;32.30;;;;;;5012311;28;19932;-70
2022/03/12 13:15:52;;;;;;;5.40;3.33;;;7.30;32.00;;;;;;5009659;28;20293;-69
2022/03/12 13:18:26;;;;;;;7.32;3.55;;;6.90;31.90;;;;;;5015016;28;20028;-69
2022/03/12 13:20:55;;;;;;;5.50;3.60;;;7.00;31.60;;;;;;5012282;28;21096;-69
2022/03/12 13:23:32;;;;;;;6.68;3.88;;;7.00;32.00;;;;;;5002416;28;20084;-69
2022/03/12 13:25:59;;;;;;;5.40;3.50;;;7.00;32.30;;;;;;5012199;28;20052;-69
2022/03/12 13:28:41;;;;;;;;;;;6.90;32.40;;;;;;5000784;28;20399;-69
2022/03/12 13:31:22;;;;;;;5.25;3.05;;;7.10;32.20;;;;;;5007593;28;19905;-69
2022/03/12 13:33:59;;;;;;;4.75;2.80;;;7.20;32.10;;;;;;5005345;28;20048;-69
2022/03/12 13:36:32;;;;;;;5.45;3.58;;;7.30;31.90;;;;;;5012440;28;20871;-69
2022/03/12 13:38:59;;;;;;;7.65;3.92;;;7.20;31.70;;;;;;5005536;28;20045;-69
2022/03/12 13:41:26;;;;;;;6.13;3.80;;;7.20;32.10;;;;;;5008648;28;20029;-68
2022/03/12 13:43:54;;;;;;;6.03;3.60;;;7.20;32.00;;;;;;5007857;28;20513;-68
2022/03/12 13:46:29;;;;;;;5.22;3.47;;;7.40;31.70;;;;;;5010604;28;20181;-67
2022/03/12 13:49:11;;;;;;;6.22;3.13;;;7.10;32.20;;;;;;5005528;28;20030;-68
2022/03/12 13:51:45;;;;;;;4.95;3.00;;;7.10;31.90;;;;;;5004608;28;20010;-67
2022/03/12 13:54:11;;;;;;;7.75;3.53;;;7.00;32.00;;;;;;5005240;28;20029;-68
2022/03/12 13:56:40;;;;;;;7.18;4.03;;;6.80;32.10;;;;;;5003737;28;20026;-67
2022/03/12 13:59:30;;;;;;;6.55;3.85;;;6.80;32.40;;;;;;5004418;28;20018;-68
2022/03/12 14:01:57;;;;;;;4.18;2.90;;;6.80;32.70;;;;;;5004425;28;20032;-68
2022/03/12 14:04:25;;;;;;;7.78;3.15;;;6.80;32.20;;;;;;5012111;28;20808;-68
2022/03/12 14:06:52;;;;;;;8.65;3.40;;;6.70;32.20;;;;;;5010324;28;20025;-69
2022/03/12 14:09:21;;;;;;;5.03;3.47;;;6.90;32.10;;;;;;5013098;28;20022;-68
2022/03/12 14:11:47;;;;;;;5.63;3.53;;;6.90;31.60;;;;;;5008721;28;20068;-68
2022/03/12 14:14:15;;;;;;;7.20;3.42;;;6.80;31.90;;;;;;5007779;28;20451;-68
2022/03/12 14:16:46;;;;;;;5.47;2.97;;;6.80;31.70;;;;;;5003952;28;20116;-68
2022/03/12 14:19:19;;;;;;;5.47;3.25;;;6.80;31.70;;;;;;5004969;28;20033;-68
2022/03/12 14:21:48;;;;;;;9.60;3.33;;;6.80;31.70;;;;;;5003710;28;20569;-67
2022/03/12 14:24:44;;;;;;;7.82;3.63;;;7.00;31.70;;;;;;5005757;28;20495;-68
2022/03/12 14:27:12;;;;;;;6.97;3.95;;;6.90;32.00;;;;;;5006575;28;20128;-68
2022/03/12 14:29:40;;;;;;;5.18;2.95;;;6.90;31.70;;;;;;5003725;28;20044;-68
2022/03/12 14:32:10;;;;;;;6.47;2.85;;;6.80;31.50;;;;;;5012862;28;20022;-67
2022/03/12 14:34:40;;;;;;;6.57;3.13;;;6.70;31.50;;;;;;5001220;28;20033;-68
2022/03/12 14:37:08;;;;;;;5.60;3.30;;;6.60;31.80;;;;;;5008386;28;20028;-68
2022/03/12 14:39:35;;;;;;;4.55;2.92;;;6.80;31.80;;;;;;5009686;28;20549;-68
2022/03/12 14:42:04;;;;;;;8.00;3.40;;;6.70;31.80;;;;;;5008720;28;20471;-68
2022/03/12 14:44:34;;;;;;;7.03;3.20;;;6.60;31.80;;;;;;5008245;28;20021;-68
2022/03/12 14:47:00;;;;;;;7.18;3.45;;;6.50;31.80;;;;;;5005366;28;20022;-68
2022/03/12 14:49:31;;;;;;;8.25;3.40;;;6.60;32.60;;;;;;5010589;28;20041;-68
2022/03/12 14:52:03;;;;;;;8.00;3.20;;;6.60;32.00;;;;;;5003834;28;20167;-68
2022/03/12 14:54:34;;;;;;;4.82;3.00;;;6.60;31.90;;;;;;5004919;28;20092;-68
2022/03/12 14:57:03;;;;;;;6.28;3.00;;;6.60;32.10;;;;;;5010506;28;20028;-67
2022/03/12 14:59:31;;;;;;;6.68;2.92;;;6.60;32.00;;;;;;5003394;28;20075;-68
2022/03/12 15:02:19;;;;;;;5.70;3.40;;;6.50;31.40;;;;;;5006711;28;20025;-68
2022/03/12 15:04:56;;;;;;;4.75;2.95;;;6.50;32.00;;;;;;5008288;28;20029;-68
2022/03/12 15:07:27;;;;;;;9.05;3.60;;;6.50;32.00;;;;;;5002338;28;20483;-68
2022/03/12 15:10:02;;;;;;;5.97;3.38;;;6.50;32.30;;;;;;5013430;28;20032;-68
2022/03/12 15:12:38;;;;;;;5.78;3.35;;;6.50;31.90;;;;;;5006237;28;20018;-68
2022/03/12 15:15:28;;;;;;;5.75;3.55;;;6.30;32.10;;;;;;5011588;28;20616;-68
2022/03/12 15:17:57;;;;;;;6.10;3.67;;;6.30;32.20;;;;;;5011251;28;20387;-68
2022/03/12 15:20:30;;;;;;;6.57;3.20;;;6.30;32.20;;;;;;5006146;28;20153;-68
2022/03/12 15:23:24;;;;;;;8.18;3.13;;;6.30;32.50;;;;;;5010424;28;21056;-68
2022/03/12 15:25:58;;;;;;;6.30;3.22;;;6.30;32.30;;;;;;5006239;28;20039;-68
2022/03/12 15:28:27;;;;;;;6.53;3.28;;;6.30;32.30;;;;;;5002845;28;20021;-68
2022/03/12 15:30:55;;;;;;;4.95;3.42;;;6.20;32.50;;;;;;5008169;28;20025;-67
2022/03/12 15:33:30;;;;;;;4.78;3.10;;;6.30;32.70;;;;;;5005228;28;20036;-68
2022/03/12 15:36:12;;;;;;;6.10;3.30;;;6.30;32.60;;;;;;5006437;28;20083;-68
2022/03/12 15:38:40;;;;;;;9.38;4.10;;;6.30;32.70;;;;;;5007392;28;20033;-68
2022/03/12 15:41:07;;;;;;;5.45;3.40;;;6.30;32.70;;;;;;5011106;28;20797;-67
2022/03/12 15:43:33;;;;;;;6.78;3.47;;;6.20;32.50;;;;;;5007645;28;20035;-67
2022/03/12 15:45:59;;;;;;;6.47;3.30;;;6.10;32.20;;;;;;5012481;28;20029;-68
2022/03/12 15:48:25;;;;;;;5.70;3.40;;;6.10;32.40;;;;;;5009863;28;20030;-68
2022/03/12 15:50:51;;;;;;;6.82;3.47;;;6.00;32.50;;;;;;5012362;28;20849;-68
2022/03/12 15:53:16;;;;;;;5.37;3.40;;;6.00;32.70;;;;;;5010723;28;20084;-68
2022/03/12 15:55:44;;;;;;;7.30;3.43;;;6.00;32.60;;;;;;5013894;28;20026;-67
2022/03/12 15:58:12;;;;;;;6.57;3.60;;;6.00;32.60;;;;;;5011379;28;20024;-68
2022/03/12 16:00:39;;;;;;;6.60;3.08;;;6.00;32.80;;;;;;5008907;28;20022;-68
2022/03/12 16:03:05;;;;;;;;;;;5.90;32.70;;;;;;5008287;28;20037;-68
2022/03/12 16:05:31;;;;;;;6.50;3.67;;;5.90;32.90;;;;;;5017147;28;20032;-68
2022/03/12 16:07:56;;;;;;;5.10;2.87;;;5.80;32.90;;;;;;5011451;28;20051;-68
2022/03/12 16:10:23;;;;;;;6.17;3.53;;;5.70;32.90;;;;;;5007477;28;20041;-68
2022/03/12 16:12:50;;;;;;;7.07;2.88;;;5.70;33.30;;;;;;5016454;28;20516;-67
2022/03/12 16:15:18;;;;;;;6.60;3.22;;;5.70;33.30;;;;;;5012900;28;20045;-68
2022/03/12 16:17:50;;;;;;;6.35;3.58;;;5.60;33.40;;;;;;5014279;28;20137;-68
2022/03/12 16:20:29;;;;;;;6.03;3.22;;;5.60;33.70;;;;;;5008852;28;20025;-68
2022/03/12 16:22:59;;;;;;;4.00;2.95;;;5.60;33.80;;;;;;5011208;28;20460;-68
2022/03/12 16:25:29;;;;;;;7.38;2.90;;;5.60;33.30;;;;;;5008477;28;20064;-68
2022/03/12 16:27:56;;;;;;;6.03;3.40;;;5.60;33.30;;;;;;5011977;28;20045;-68
2022/03/12 16:30:25;;;;;;;5.97;3.38;;;5.50;33.40;;;;;;5005828;28;20036;-68
2022/03/12 16:32:57;;;;;;;3.85;2.72;;;5.50;33.90;;;;;;5012109;28;20116;-68
2022/03/12 16:35:27;;;;;;;11.13;3.50;;;5.50;33.80;;;;;;5008227;28;20057;-68
2022/03/12 16:37:54;;;;;;;5.80;3.58;;;5.40;33.70;;;;;;5014601;28;20352;-68
2022/03/12 16:40:21;;;;;;;8.40;3.67;;;5.30;34.00;;;;;;5007811;28;20056;-68
2022/03/12 16:42:47;;;;;;;7.00;3.45;;;5.30;34.20;;;;;;5011681;28;20594;-68
2022/03/12 16:45:15;;;;;;;8.10;3.28;;;5.30;34.00;;;;;;5013672;28;20026;-68
2022/03/12 16:47:42;;;;;;;5.32;3.15;;;5.20;33.90;;;;;;5015958;28;20014;-68
2022/03/12 16:50:09;;;;;;;7.88;3.38;;;5.20;34.60;;;;;;5009730;28;20029;-68
2022/03/12 16:52:37;;;;;;;4.25;2.90;;;5.10;33.90;;;;;;5004433;28;20544;-68
2022/03/12 16:55:03;;;;;;;7.20;3.60;;;5.10;34.10;;;;;;5014036;28;20026;-68
2022/03/12 16:57:28;;;;;;;8.27;3.72;;;5.10;34.30;;;;;;5004448;28;20769;-68
2022/03/12 16:59:54;;;;;;;5.60;3.13;;;5.00;34.40;;;;;;5009022;28;20041;-68
2022/03/12 17:02:21;;;;;;;6.73;3.27;;;5.00;34.60;;;;;;5006689;28;20041;-68
2022/03/12 17:04:47;;;;;;;5.45;3.50;;;4.90;34.80;;;;;;5011045;28;20423;-68
2022/03/12 17:07:15;;;;;;;5.07;3.17;;;4.90;34.80;;;;;;5012602;28;20018;-68
2022/03/12 17:09:43;;;;;;;5.65;3.47;;;4.90;35.20;;;;;;5007378;28;20041;-68
2022/03/12 17:12:09;;;;;;;5.60;3.25;;;4.80;35.10;;;;;;5009872;28;20021;-68
2022/03/12 17:14:35;;;;;;;7.90;3.72;;;4.80;35.10;;;;;;5009139;28;21136;-68
2022/03/12 17:17:02;;;;;;;8.50;3.67;;;4.80;35.60;;;;;;5008467;28;20038;-68
2022/03/12 17:19:29;;;;;;;;;;;4.70;35.30;;;;;;5009715;28;20025;-67
2022/03/12 17:21:58;;;;;;;6.00;3.47;;;4.70;35.30;;;;;;5013418;28;19962;-68
2022/03/12 17:24:26;;;;;;;6.15;3.53;;;4.60;35.50;;;;;;5011571;28;20021;-68
2022/03/12 17:26:54;;;;;;;6.75;3.65;;;4.60;35.90;;;;;;5006597;28;21639;-68
2022/03/12 17:29:20;;;;;;;8.80;4.03;;;4.60;35.90;;;;;;5004755;28;20022;-68
2022/03/12 17:31:47;;;;;;;4.85;3.20;;;4.50;35.70;;;;;;5009750;28;20045;-68
2022/03/12 17:34:17;;;;;;;6.90;3.63;;;4.50;35.90;;;;;;5012918;28;20033;-68
2022/03/12 17:36:43;;;;;;;8.70;3.78;;;4.40;36.00;;;;;;5012484;28;20028;-68
2022/03/12 17:39:14;;;;;;;10.77;4.03;;;4.40;36.10;;;;;;5015308;28;20021;-69
2022/03/12 17:41:42;;;;;;;6.57;3.50;;;4.40;36.80;;;;;;5008421;28;20034;-68
2022/03/12 17:44:08;;;;;;;9.30;4.00;;;4.40;36.40;;;;;;5013956;28;20040;-70
2022/03/12 17:46:34;;;;;;;6.53;4.32;;;4.30;36.50;;;;;;5003380;28;20478;-69
2022/03/12 17:49:01;;;;;;;6.03;3.58;;;4.20;36.50;;;;;;5012708;28;20040;-69
2022/03/12 17:51:28;;;;;;;;;;;4.20;36.60;;;;;;5004712;28;20021;-69
2022/03/12 17:53:54;;;;;;;7.00;3.35;;;4.20;36.60;;;;;;5006982;28;19913;-70
2022/03/12 17:56:23;;;;;;;7.07;4.20;;;4.10;36.80;;;;;;5004190;28;20029;-69
2022/03/12 17:58:52;;;;;;;8.68;4.63;;;4.10;36.90;;;;;;5013888;28;20036;-69
2022/03/12 18:01:19;;;;;;;6.25;3.92;;;4.10;37.20;;;;;;5008233;28;20533;-68
2022/03/12 18:03:46;;;;;;;7.80;3.88;;;4.00;37.30;;;;;;5010534;28;20018;-69
2022/03/12 18:06:11;;;;;;;6.95;3.83;;;4.00;37.20;;;;;;5009942;28;20120;-69
2022/03/12 18:08:37;;;;;;;9.27;4.43;;;4.00;37.40;;;;;;5008118;28;20092;-69
2022/03/12 18:11:06;;;;;;;8.50;3.83;;;3.90;37.60;;;;;;5010318;28;20024;-69
2022/03/12 18:13:32;;;;;;;7.60;4.60;;;3.90;37.60;;;;;;5008661;28;20033;-69
2022/03/12 18:15:58;;;;;;;7.57;4.20;;;3.90;37.80;;;;;;5013870;28;20029;-70
2022/03/12 18:18:24;;;;;;;10.50;4.43;;;3.80;37.70;;;;;;5006955;28;20052;-70
2022/03/12 18:20:53;;;;;;;6.03;4.03;;;3.80;37.70;;;;;;5005837;28;20479;-69
2022/03/12 18:23:20;;;;;;;7.25;3.88;;;3.70;38.10;;;;;;5005722;28;20046;-69
2022/03/12 18:25:50;;;;;;;6.97;3.97;;;3.70;38.10;;;;;;5006578;28;20014;-69
2022/03/12 18:28:24;;;;;;;9.40;4.38;;;3.70;38.10;;;;;;5009027;28;20168;-69
2022/03/12 18:30:50;;;;;;;6.13;3.60;;;3.60;38.10;;;;;;5010295;28;20679;-69
2022/03/12 18:33:16;;;;;;;8.75;4.57;;;3.60;38.20;;;;;;5014191;28;20017;-69
2022/03/12 18:35:42;;;;;;;7.35;4.10;;;3.60;38.40;;;;;;5007416;28;20079;-69
2022/03/12 18:38:09;;;;;;;6.57;3.63;;;3.60;38.70;;;;;;5006216;28;20550;-69
2022/03/12 18:40:39;;;;;;;6.97;3.95;;;3.50;39.40;;;;;;5007323;28;20743;-69
2022/03/12 18:43:08;;;;;;;7.68;4.03;;;3.40;39.10;;;;;;5000983;28;20044;-68
2022/03/12 18:45:34;;;;;;;6.97;3.67;;;3.40;39.30;;;;;;5008371;28;20022;-69
2022/03/12 18:48:00;;;;;;;7.75;4.18;;;3.40;39.30;;;;;;5012066;28;20022;-69
2022/03/12 18:50:27;;;;;;;7.47;3.93;;;3.40;39.60;;;;;;5004942;28;20033;-69
2022/03/12 18:52:54;;;;;;;9.55;4.22;;;3.40;39.60;;;;;;5013698;28;20546;-69
2022/03/12 18:55:21;;;;;;;7.07;3.70;;;3.30;39.70;;;;;;5008045;28;20135;-69
2022/03/12 18:57:50;;;;;;;7.30;3.72;;;3.20;39.90;;;;;;5009953;28;20075;-69
2022/03/12 19:00:20;;;;;;;7.32;3.88;;;3.20;40.00;;;;;;5012383;28;20095;-69
2022/03/12 19:02:48;;;;;;;6.55;3.83;;;3.10;39.90;;;;;;5006320;28;20040;-69
2022/03/12 19:05:15;;;;;;;7.60;3.92;;;3.10;39.60;;;;;;5005251;28;20064;-69
2022/03/12 19:07:41;;;;;;;7.70;4.40;;;3.10;39.80;;;;;;5004616;28;20255;-69
2022/03/12 19:10:08;;;;;;;10.90;4.73;;;3.10;39.80;;;;;;5011564;28;20013;-69
2022/03/12 19:12:34;;;;;;;7.50;3.75;;;3.10;39.60;;;;;;5005151;28;20017;-69
2022/03/12 19:15:00;;;;;;;7.47;4.25;;;3.00;39.60;;;;;;5008231;28;20018;-69
2022/03/12 19:17:26;;;;;;;7.97;3.93;;;3.10;39.60;;;;;;5005542;28;20091;-70
2022/03/12 19:19:56;;;;;;;5.90;3.75;;;3.00;39.60;;;;;;5008465;28;20033;-69
2022/03/12 19:22:26;;;;;;;9.07;3.60;;;3.10;39.70;;;;;;5008268;28;20152;-69
2022/03/12 19:24:54;;;;;;;8.23;3.80;;;3.00;39.60;;;;;;5004760;28;20038;-69
2022/03/12 19:27:19;;;;;;;8.77;3.25;;;3.00;39.50;;;;;;5010577;28;20037;-69
2022/03/12 19:29:46;;;;;;;6.63;3.43;;;3.00;39.50;;;;;;5003963;28;20021;-69
2022/03/12 19:32:14;;;;;;;6.80;3.88;;;3.00;39.50;;;;;;5005611;28;20030;-69
2022/03/12 19:34:41;;;;;;;8.18;3.97;;;2.90;39.40;;;;;;5006254;28;20103;-69
2022/03/12 19:37:07;;;;;;;7.47;3.90;;;2.90;39.50;;;;;;5009467;28;20029;-68
2022/03/12 19:39:33;;;;;;;8.23;4.03;;;2.90;39.50;;;;;;4998908;28;20097;-69
2022/03/12 19:42:00;;;;;;;10.07;4.03;;;2.90;39.50;;;;;;5004624;28;20038;-69
2022/03/12 19:44:28;;;;;;;5.85;3.63;;;2.90;39.60;;;;;;5001228;28;20025;-69
2022/03/12 19:46:54;;;;;;;8.48;4.07;;;2.90;39.50;;;;;;5013348;28;20379;-69
2022/03/12 19:49:19;;;;;;;6.32;3.42;;;2.80;39.70;;;;;;5010326;28;20052;-69
2022/03/12 19:51:46;;;;;;;6.00;4.27;;;2.80;39.50;;;;;;5002470;28;20080;-69
2022/03/12 19:54:12;;;;;;;;;;;2.80;39.70;;;;;;5010125;28;20033;-69
2022/03/12 19:56:40;;;;;;;7.70;4.15;;;2.80;39.70;;;;;;5003898;28;19909;-68
2022/03/12 19:59:06;;;;;;;8.68;4.60;;;2.80;39.60;;;;;;5007258;28;20022;-69
2022/03/12 20:01:34;;;;;;;8.20;4.07;;;2.70;39.70;;;;;;5006873;28;20393;-69
2022/03/12 20:04:00;;;;;;;9.93;4.85;;;2.70;39.60;;;;;;5004244;28;20014;-69
2022/03/12 20:06:27;;;;;;;8.93;4.10;;;2.70;39.60;;;;;;5001158;28;20368;-70
2022/03/12 20:08:53;;;;;;;8.02;3.80;;;2.70;39.80;;;;;;5004130;28;20049;-69
2022/03/12 20:11:20;;;;;;;6.32;3.80;;;2.70;40.10;;;;;;5007792;28;20136;-69
2022/03/12 20:13:47;;;;;;;7.15;4.05;;;2.60;39.80;;;;;;5003816;28;20105;-70
2022/03/12 20:16:13;;;;;;;11.63;4.07;;;2.60;40.00;;;;;;5007818;28;20095;-69
2022/03/12 20:18:40;;;;;;;7.00;3.97;;;2.60;40.10;;;;;;5005256;28;20053;-70
2022/03/12 20:21:09;;;;;;;8.18;4.43;;;2.60;40.10;;;;;;5006673;28;20021;-69
2022/03/12 20:23:35;;;;;;;7.53;3.90;;;2.50;39.90;;;;;;5007488;28;20022;-70
2022/03/12 20:26:01;;;;;;;6.55;3.85;;;2.50;40.00;;;;;;5007417;28;20551;-69
2022/03/12 20:28:28;;;;;;;8.65;3.88;;;2.50;40.30;;;;;;5011297;28;20036;-69
2022/03/12 20:30:54;;;;;;;6.35;3.47;;;2.50;40.10;;;;;;5005217;28;20025;-69
2022/03/12 20:33:24;;;;;;;6.85;4.03;;;2.40;40.30;;;;;;5008857;28;20494;-71